createdAt,value
2023-04-10T00:00:39.320Z,101966.56
2023-04-10T00:03:06.958Z,101963.94
2023-04-10T00:05:34.290Z,101955.34
2023-04-10T00:08:02.886Z,101960.91
2023-04-10T00:10:31.695Z,101967.63
2023-04-10T00:13:00.890Z,101967.28
2023-04-10T00:15:28.755Z,101967.72
2023-04-10T00:17:55.981Z,101960.59
2023-04-10T00:20:26.174Z,101950.25
2023-04-10T00:22:53.312Z,101965.69
2023-04-10T00:25:20.682Z,101959.31
2023-04-10T00:27:47.783Z,101953.13
2023-04-10T00:30:14.875Z,101949.44
2023-04-10T00:32:43.709Z,101950.25
2023-04-10T00:35:10.848Z,101949.44
2023-04-10T00:37:38.401Z,101937.22
2023-04-10T00:40:06.698Z,101939.91
2023-04-10T00:42:33.908Z,101937.44
2023-04-10T00:45:01.204Z,101934.63
2023-04-10T00:47:29.005Z,101935.22
2023-04-10T00:49:56.342Z,101932.41
2023-04-10T00:52:26.101Z,101926.09
2023-04-10T00:54:53.199Z,101925.59
2023-04-10T00:57:20.341Z,101918.47
2023-04-10T00:59:48.857Z,101921.91
2023-04-10T01:02:18.148Z,101919.69
2023-04-10T01:04:45.802Z,101919.19
2023-04-10T01:07:47.302Z,101920.06
2023-04-10T01:10:53.880Z,101914.53
2023-04-10T01:13:43.630Z,101921.81
2023-04-10T01:16:52.234Z,101917.59
2023-04-10T01:19:49.228Z,101918.66
2023-04-10T01:22:17.489Z,101924.25
2023-04-10T01:25:38.453Z,101918.38
2023-04-10T01:28:12.017Z,101918.28
2023-04-10T01:30:40.511Z,101920.53
2023-04-10T01:33:13.623Z,101918.94
2023-04-10T01:35:46.039Z,101919.16
2023-04-10T01:38:15.860Z,101924.34
2023-04-10T01:40:50.264Z,101922.09
2023-04-10T01:43:19.462Z,101911.66
2023-04-10T01:45:49.388Z,101911.94
2023-04-10T01:48:18.686Z,101912.91
2023-04-10T01:50:47.777Z,101907.81
2023-04-10T01:53:15.917Z,101914.88
2023-04-10T01:55:43.684Z,101923.31
2023-04-10T01:58:11.971Z,101917.13
2023-04-10T02:00:41.836Z,101908.31
2023-04-10T02:03:10.820Z,101907.41
2023-04-10T02:06:35.404Z,101914.44
2023-04-10T02:09:38.111Z,101904.28
2023-04-10T02:12:15.616Z,101907.22
2023-04-10T02:14:47.998Z,101911.78
2023-04-10T02:17:23.592Z,101904.75
2023-04-10T02:19:53.318Z,101907.97
2023-04-10T02:22:21.999Z,101908.06
2023-04-10T02:24:50.108Z,101908.78
2023-04-10T02:27:27.689Z,101911.56
2023-04-10T02:29:54.793Z,101906.53
2023-04-10T02:32:21.857Z,101905.69
2023-04-10T02:34:48.968Z,101914.47
2023-04-10T02:37:16.624Z,101914.38
2023-04-10T02:39:43.704Z,101912.84
2023-04-10T02:42:11.104Z,101916.53
2023-04-10T02:44:39.590Z,101922.84
2023-04-10T02:47:07.156Z,101920.13
2023-04-10T02:49:35.109Z,101924.22
2023-04-10T02:52:02.573Z,101913.75
2023-04-10T02:54:29.671Z,101924.28
2023-04-10T02:57:00.416Z,101917.56
2023-04-10T02:59:27.760Z,101919.94
2023-04-10T03:01:54.952Z,101924.38
2023-04-10T03:04:22.133Z,101914.97
2023-04-10T03:06:49.356Z,101915.34
2023-04-10T03:09:16.986Z,101921.75
2023-04-10T03:11:44.069Z,101922.81
2023-04-10T03:14:11.146Z,101923.34
2023-04-10T03:16:38.366Z,101925.88
2023-04-10T03:19:05.725Z,101929.41
2023-04-10T03:21:32.879Z,101927.63
2023-04-10T03:23:59.998Z,101914.91
2023-04-10T03:26:28.346Z,101924.47
2023-04-10T03:28:55.491Z,101921.84
2023-04-10T03:31:22.684Z,101917.41
2023-04-10T03:33:49.985Z,101923.13
2023-04-10T03:36:17.254Z,101926.19
2023-04-10T03:38:46.402Z,101926.00
2023-04-10T03:41:13.581Z,101925.78
2023-04-10T03:43:40.728Z,101936.19
2023-04-10T03:46:07.801Z,101928.19
2023-04-10T03:48:34.873Z,101926.19
2023-04-10T03:51:04.298Z,101924.53
2023-04-10T03:53:35.902Z,101919.34
2023-04-10T03:56:04.145Z,101919.09
2023-04-10T03:58:31.329Z,101918.47
2023-04-10T04:00:58.511Z,101923.63
2023-04-10T04:03:25.749Z,101928.75
2023-04-10T04:05:52.891Z,101932.97
2023-04-10T04:08:20.011Z,101927.69
2023-04-10T04:10:47.149Z,101927.03
2023-04-10T04:13:14.192Z,101928.94
2023-04-10T04:15:42.302Z,101916.56
2023-04-10T04:18:10.626Z,101922.91
2023-04-10T04:20:37.686Z,101923.91
2023-04-10T04:23:04.750Z,101929.03
2023-04-10T04:25:31.832Z,101930.31
2023-04-10T04:27:58.927Z,101925.94
2023-04-10T04:30:26.001Z,101926.78
2023-04-10T04:32:53.076Z,101929.78
2023-04-10T04:35:20.244Z,101926.97
2023-04-10T04:37:49.460Z,101926.53
2023-04-10T04:40:16.629Z,101926.44
2023-04-10T04:42:43.695Z,101928.75
2023-04-10T04:45:11.279Z,101924.78
2023-04-10T04:47:38.402Z,101930.91
2023-04-10T04:50:06.672Z,101929.88
2023-04-10T04:52:35.276Z,101931.50
2023-04-10T04:55:02.432Z,101932.50
2023-04-10T04:57:29.437Z,101930.78
2023-04-10T04:59:56.643Z,101931.66
2023-04-10T05:02:23.876Z,101935.84
2023-04-10T05:04:51.368Z,101924.06
2023-04-10T05:07:18.421Z,101930.06
2023-04-10T05:09:45.507Z,101927.84
2023-04-10T05:12:12.624Z,101932.28
2023-04-10T05:14:39.709Z,101926.47
2023-04-10T05:17:07.795Z,101930.03
2023-04-10T05:19:34.851Z,101925.88
2023-04-10T05:22:01.911Z,101930.78
2023-04-10T05:24:28.956Z,101930.63
2023-04-10T05:26:56.039Z,101930.97
2023-04-10T05:29:24.748Z,101943.00
2023-04-10T05:31:53.388Z,101946.81
2023-04-10T05:34:20.819Z,101946.09
2023-04-10T05:36:47.880Z,101944.84
2023-04-10T05:39:15.778Z,101939.13
2023-04-10T05:41:42.937Z,101943.66
2023-04-10T05:44:10.079Z,101941.44
2023-04-10T05:46:37.246Z,101940.09
2023-04-10T05:49:04.351Z,101942.22
2023-04-10T05:51:31.950Z,101931.75
2023-04-10T05:53:59.029Z,101932.56
2023-04-10T05:56:28.136Z,101928.94
2023-04-10T05:58:55.474Z,101928.09
2023-04-10T06:01:22.904Z,101937.25
2023-04-10T06:03:50.144Z,101931.19
2023-04-10T06:06:21.784Z,101933.91
2023-04-10T06:08:50.296Z,101929.97
2023-04-10T06:11:17.399Z,101934.69
2023-04-10T06:13:44.487Z,101934.91
2023-04-10T06:16:11.884Z,101930.03
2023-04-10T06:18:41.888Z,101922.84
2023-04-10T06:21:09.104Z,101919.53
2023-04-10T06:23:37.223Z,101932.00
2023-04-10T06:26:04.708Z,101925.16
2023-04-10T06:28:31.769Z,101918.13
2023-04-10T06:30:58.939Z,101920.50
2023-04-10T06:33:26.380Z,101917.84
2023-04-10T06:35:53.530Z,101918.13
2023-04-10T06:38:22.963Z,101927.47
2023-04-10T06:40:51.649Z,101924.69
2023-04-10T06:43:18.692Z,101926.41
2023-04-10T06:45:46.350Z,101915.28
2023-04-10T06:48:13.640Z,101921.34
2023-04-10T06:50:40.791Z,101910.84
2023-04-10T06:53:08.011Z,101914.06
2023-04-10T06:55:35.272Z,101912.72
2023-04-10T06:58:02.361Z,101912.13
2023-04-10T07:00:31.173Z,101909.81
2023-04-10T07:02:58.418Z,101908.72
2023-04-10T07:05:25.524Z,101900.56
2023-04-10T07:07:53.264Z,101902.81
2023-04-10T07:10:20.798Z,101910.06
2023-04-10T07:12:47.948Z,101905.00
2023-04-10T07:15:15.059Z,101898.84
2023-04-10T07:17:42.456Z,101903.06
2023-04-10T07:20:10.648Z,101903.06
2023-04-10T07:22:38.949Z,101900.38
2023-04-10T07:25:07.293Z,101908.84
2023-04-10T07:27:34.554Z,101912.59
2023-04-10T07:30:01.733Z,101915.50
2023-04-10T07:32:28.972Z,101915.91
2023-04-10T07:34:56.189Z,101906.69
2023-04-10T07:37:23.293Z,101907.19
2023-04-10T07:39:50.385Z,101913.28
2023-04-10T07:42:17.451Z,101900.94
2023-04-10T07:44:44.596Z,101896.94
2023-04-10T07:47:11.831Z,101894.59
2023-04-10T07:49:38.975Z,101891.16
2023-04-10T07:52:06.234Z,101893.94
2023-04-10T07:54:36.566Z,101884.88
2023-04-10T07:57:03.652Z,101886.31
2023-04-10T07:59:30.839Z,101887.31
2023-04-10T08:01:58.089Z,101888.75
2023-04-10T08:04:25.542Z,101880.81
2023-04-10T08:06:52.922Z,101888.91
2023-04-10T08:09:20.542Z,101888.44
2023-04-10T08:11:47.936Z,101885.16
2023-04-10T08:14:17.965Z,101872.00
2023-04-10T08:16:45.935Z,101875.69
2023-04-10T08:19:13.249Z,101859.19
2023-04-10T08:21:40.414Z,101864.66
2023-04-10T08:24:07.649Z,101862.22
2023-04-10T08:26:37.669Z,101871.59
2023-04-10T08:29:04.764Z,101868.38
2023-04-10T08:31:32.079Z,101868.09
2023-04-10T08:33:59.754Z,101873.38
2023-04-10T08:36:27.685Z,101871.50
2023-04-10T08:38:54.808Z,101872.63
2023-04-10T08:41:22.088Z,101866.47
2023-04-10T08:43:51.300Z,101867.19
2023-04-10T08:46:18.537Z,101872.00
2023-04-10T08:49:05.487Z,101865.75
2023-04-10T08:51:43.941Z,101856.56
2023-04-10T08:54:28.465Z,101863.38
2023-04-10T08:56:58.441Z,101854.13
2023-04-10T08:59:27.636Z,101859.19
2023-04-10T09:01:54.829Z,101853.22
2023-04-10T09:04:23.384Z,101847.63
2023-04-10T09:06:50.758Z,101844.78
2023-04-10T09:09:17.928Z,101838.72
2023-04-10T09:12:00.236Z,101832.91
2023-04-10T09:14:32.612Z,101830.72
2023-04-10T09:17:21.597Z,101826.59
2023-04-10T09:19:49.416Z,101822.22
2023-04-10T09:22:17.316Z,101818.94
2023-04-10T09:24:47.759Z,101807.47
2023-04-10T09:27:37.210Z,101810.00
2023-04-10T09:30:07.156Z,101805.25
2023-04-10T09:33:02.176Z,101803.88
2023-04-10T09:35:39.612Z,101794.63
2023-04-10T09:38:21.784Z,101789.81
2023-04-10T09:40:49.655Z,101786.59
2023-04-10T09:43:27.311Z,101786.97
2023-04-10T09:45:57.466Z,101788.31
2023-04-10T09:48:29.098Z,101779.53
2023-04-10T09:50:57.669Z,101782.09
2023-04-10T09:53:25.319Z,101778.56
2023-04-10T09:55:52.506Z,101771.25
2023-04-10T09:58:19.602Z,101770.97
2023-04-10T10:00:50.015Z,101770.63
2023-04-10T10:03:23.016Z,101759.56
2023-04-10T10:05:54.553Z,101765.13
2023-04-10T10:08:22.838Z,101757.44
2023-04-10T10:10:57.417Z,101753.47
2023-04-10T10:13:46.813Z,101745.78
2023-04-10T10:16:47.002Z,101747.75
2023-04-10T10:19:29.209Z,101745.38
2023-04-10T10:21:57.422Z,101748.34
2023-04-10T10:24:26.451Z,101743.31
2023-04-10T10:26:57.261Z,101742.13
2023-04-10T10:29:30.212Z,101741.94
2023-04-10T10:31:59.914Z,101731.19
2023-04-10T10:34:27.198Z,101725.06
2023-04-10T10:36:54.650Z,101720.72
2023-04-10T10:40:14.281Z,101723.63
2023-04-10T10:43:05.836Z,101719.31
2023-04-10T10:45:57.340Z,101711.84
2023-04-10T10:48:24.702Z,101711.34
2023-04-10T10:51:01.974Z,101701.19
2023-04-10T10:53:45.884Z,101699.88
2023-04-10T10:56:18.889Z,101689.41
2023-04-10T10:58:56.071Z,101685.53
2023-04-10T11:01:24.331Z,101689.91
2023-04-10T11:03:51.703Z,101689.28
2023-04-10T11:06:48.626Z,101686.72
2023-04-10T11:09:57.166Z,101678.44
2023-04-10T11:12:25.460Z,101686.81
2023-04-10T11:15:04.939Z,101671.72
2023-04-10T11:17:54.233Z,101658.72
2023-04-10T11:20:25.741Z,101672.47
2023-04-10T11:23:13.076Z,101664.28
2023-04-10T11:25:52.903Z,101657.75
2023-04-10T11:28:32.213Z,101663.97
2023-04-10T11:31:22.028Z,101650.88
2023-04-10T11:34:02.585Z,101649.44
2023-04-10T11:36:31.939Z,101643.00
2023-04-10T11:39:09.078Z,101649.03
2023-04-10T11:41:42.702Z,101639.38
2023-04-10T11:44:14.543Z,101632.72
2023-04-10T11:46:47.907Z,101630.72
2023-04-10T11:49:29.826Z,101621.16
2023-04-10T11:51:59.275Z,101620.06
2023-04-10T11:54:29.602Z,101612.00
2023-04-10T11:57:09.780Z,101611.09
2023-04-10T11:59:37.102Z,101606.88
2023-04-10T12:02:17.417Z,101609.28
2023-04-10T12:04:44.950Z,101595.50
2023-04-10T12:07:12.286Z,101593.75
2023-04-10T12:09:39.665Z,101584.44
2023-04-10T12:12:08.303Z,101584.28
2023-04-10T12:14:42.401Z,101572.63
2023-04-10T12:17:12.860Z,101571.09
2023-04-10T12:19:41.756Z,101566.75
2023-04-10T12:22:12.855Z,101564.72
2023-04-10T12:24:50.668Z,101562.00
2023-04-10T12:27:27.494Z,101554.09
2023-04-10T12:29:59.004Z,101550.63
2023-04-10T12:32:27.827Z,101543.78
2023-04-10T12:35:01.297Z,101542.03
2023-04-10T12:37:54.352Z,101543.66
2023-04-10T12:40:21.585Z,101532.31
2023-04-10T12:42:48.832Z,101534.44
2023-04-10T12:45:15.893Z,101518.34
2023-04-10T12:47:54.271Z,101522.94
2023-04-10T12:50:21.816Z,101523.09
2023-04-10T12:53:11.814Z,101516.19
2023-04-10T12:55:40.829Z,101510.00
2023-04-10T12:58:20.558Z,101503.41
2023-04-10T13:00:49.077Z,101502.66
2023-04-10T13:03:16.355Z,101503.38
2023-04-10T13:05:44.688Z,101492.63
2023-04-10T13:08:12.011Z,101492.00
2023-04-10T13:10:40.484Z,101473.88
2023-04-10T13:13:13.878Z,101480.84
2023-04-10T13:15:41.605Z,101470.66
2023-04-10T13:18:10.408Z,101460.88
2023-04-10T13:20:41.193Z,101465.97
2023-04-10T13:23:08.778Z,101454.22
2023-04-10T13:25:40.598Z,101444.09
2023-04-10T13:28:11.119Z,101440.34
2023-04-10T13:30:42.321Z,101437.97
2023-04-10T13:33:10.238Z,101424.16
2023-04-10T13:35:37.510Z,101423.34
2023-04-10T13:38:09.131Z,101423.38
2023-04-10T13:40:36.185Z,101421.81
2023-04-10T13:43:05.782Z,101414.09
2023-04-10T13:45:33.691Z,101409.34
2023-04-10T13:48:00.973Z,101408.00
2023-04-10T13:50:28.159Z,101399.59
2023-04-10T13:52:55.264Z,101399.13
2023-04-10T13:55:22.523Z,101393.56
2023-04-10T13:57:49.545Z,101394.66
2023-04-10T14:00:17.425Z,101394.16
2023-04-10T14:02:45.771Z,101383.25
2023-04-10T14:05:12.923Z,101375.06
2023-04-10T14:07:39.985Z,101372.56
2023-04-10T14:10:08.381Z,101372.16
2023-04-10T14:12:37.072Z,101377.31
2023-04-10T14:15:05.954Z,101373.75
2023-04-10T14:17:34.813Z,101373.53
2023-04-10T14:20:01.973Z,101369.53
2023-04-10T14:22:30.331Z,101365.44
2023-04-10T14:25:09.423Z,101368.44
2023-04-10T14:27:40.690Z,101360.38
2023-04-10T14:30:10.069Z,101349.13
2023-04-10T14:32:39.284Z,101362.28
2023-04-10T14:35:07.359Z,101356.94
2023-04-10T14:37:34.474Z,101349.16
2023-04-10T14:40:01.677Z,101351.53
2023-04-10T14:42:28.940Z,101346.28
2023-04-10T14:45:01.059Z,101335.66
2023-04-10T14:47:31.633Z,101336.66
2023-04-10T14:49:58.850Z,101322.16
2023-04-10T14:52:27.654Z,101318.75
2023-04-10T14:54:54.769Z,101320.28
2023-04-10T14:57:21.951Z,101311.09
2023-04-10T14:59:49.058Z,101317.09
2023-04-10T15:02:16.180Z,101307.47
2023-04-10T15:04:43.399Z,101305.72
2023-04-10T15:07:10.459Z,101296.72
2023-04-10T15:09:37.803Z,101290.19
2023-04-10T15:12:05.247Z,101291.28
2023-04-10T15:14:32.511Z,101291.47
2023-04-10T15:16:59.722Z,101287.00
2023-04-10T15:19:27.330Z,101294.94
2023-04-10T15:21:55.693Z,101277.88
2023-04-10T15:24:25.182Z,101279.34
2023-04-10T15:26:53.552Z,101270.66
2023-04-10T15:29:23.539Z,101263.72
2023-04-10T15:31:51.259Z,101258.28
2023-04-10T15:34:19.061Z,101267.16
2023-04-10T15:36:46.163Z,101250.59
2023-04-10T15:39:13.482Z,101254.03
2023-04-10T15:41:42.620Z,101248.34
2023-04-10T15:44:09.925Z,101246.44
2023-04-10T15:46:37.891Z,101244.78
2023-04-10T15:49:05.356Z,101236.25
2023-04-10T15:51:32.497Z,101232.06
2023-04-10T15:54:04.799Z,101228.00
2023-04-10T15:56:33.339Z,101211.47
2023-04-10T15:59:00.495Z,101212.09
2023-04-10T16:01:27.839Z,101211.28
2023-04-10T16:03:55.314Z,101201.94
2023-04-10T16:06:25.827Z,101201.13
2023-04-10T16:08:53.218Z,101194.50
2023-04-10T16:11:24.111Z,101186.03
2023-04-10T16:13:51.195Z,101191.34
2023-04-10T16:16:18.816Z,101186.69
2023-04-10T16:18:46.478Z,101185.53
2023-04-10T16:21:16.817Z,101169.56
2023-04-10T16:23:44.110Z,101165.78
2023-04-10T16:26:11.182Z,101159.81
2023-04-10T16:28:40.704Z,101153.88
2023-04-10T16:31:07.875Z,101151.84
2023-04-10T16:33:34.972Z,101151.31
2023-04-10T16:36:05.023Z,101148.34
2023-04-10T16:38:34.475Z,101140.56
2023-04-10T16:41:05.866Z,101134.91
2023-04-10T16:43:32.978Z,101131.72
2023-04-10T16:46:00.330Z,101131.09
2023-04-10T16:48:27.751Z,101126.13
2023-04-10T16:50:54.895Z,101131.56
2023-04-10T16:53:22.344Z,101125.25
2023-04-10T16:56:02.803Z,101121.50
2023-04-10T16:58:31.473Z,101111.38
2023-04-10T17:00:58.912Z,101115.19
2023-04-10T17:03:26.701Z,101102.75
2023-04-10T17:05:53.774Z,101103.56
2023-04-10T17:08:20.833Z,101105.59
2023-04-10T17:10:47.848Z,101103.97
2023-04-10T17:13:20.391Z,101097.31
2023-04-10T17:15:47.488Z,101097.16
2023-04-10T17:18:15.163Z,101098.00
2023-04-10T17:20:42.345Z,101093.41
2023-04-10T17:23:09.403Z,101080.56
2023-04-10T17:25:40.593Z,101082.84
2023-04-10T17:28:08.373Z,101076.03
2023-04-10T17:30:35.824Z,101083.19
2023-04-10T17:33:02.971Z,101069.75
2023-04-10T17:35:30.365Z,101070.44
2023-04-10T17:37:57.435Z,101072.31
2023-04-10T17:40:24.990Z,101066.03
2023-04-10T17:42:52.122Z,101056.06
2023-04-10T17:45:19.455Z,101051.44
2023-04-10T17:47:46.548Z,101045.63
2023-04-10T17:50:13.692Z,101038.47
2023-04-10T17:52:40.918Z,101045.56
2023-04-10T17:55:08.979Z,101038.22
2023-04-10T17:57:36.003Z,101041.97
2023-04-10T18:00:09.321Z,101030.44
2023-04-10T18:02:36.524Z,101026.13
2023-04-10T18:05:03.795Z,101020.56
2023-04-10T18:07:30.833Z,101025.72
2023-04-10T18:09:57.880Z,101022.34
2023-04-10T18:12:24.942Z,101022.16
2023-04-10T18:14:52.080Z,101012.19
2023-04-10T18:17:19.182Z,101011.66
2023-04-10T18:19:46.320Z,101014.28
2023-04-10T18:22:13.343Z,101007.63
2023-04-10T18:24:40.508Z,101008.19
2023-04-10T18:27:07.585Z,101015.25
2023-04-10T18:29:34.628Z,101007.91
2023-04-10T18:32:01.749Z,101016.25
2023-04-10T18:34:28.796Z,101007.88
2023-04-10T18:36:56.610Z,101000.09
2023-04-10T18:39:23.744Z,101001.59
2023-04-10T18:41:50.785Z,101000.81
2023-04-10T18:44:17.872Z,101005.78
2023-04-10T18:46:48.615Z,101001.84
2023-04-10T18:49:21.004Z,101002.28
2023-04-10T18:51:48.050Z,101004.72
2023-04-10T18:54:15.218Z,100983.94
2023-04-10T18:56:42.288Z,100993.44
2023-04-10T18:59:09.454Z,100990.75
2023-04-10T19:01:36.841Z,100988.63
2023-04-10T19:04:04.005Z,100988.06
2023-04-10T19:06:32.696Z,100982.22
2023-04-10T19:09:00.030Z,100984.59
2023-04-10T19:11:27.214Z,100971.34
2023-04-10T19:13:54.727Z,100964.22
2023-04-10T19:16:22.391Z,100953.84
2023-04-10T19:18:49.744Z,100966.41
2023-04-10T19:21:16.898Z,100950.47
2023-04-10T19:23:44.836Z,100953.44
2023-04-10T19:26:11.929Z,100944.75
2023-04-10T19:28:40.449Z,100944.56
2023-04-10T19:31:08.439Z,100945.63
2023-04-10T19:33:35.564Z,100935.63
2023-04-10T19:36:02.680Z,100933.97
2023-04-10T19:38:30.560Z,100920.09
2023-04-10T19:40:57.702Z,100921.72
2023-04-10T19:43:25.066Z,100915.13
2023-04-10T19:45:53.286Z,100914.34
2023-04-10T19:48:22.706Z,100904.22
2023-04-10T19:50:49.762Z,100909.53
2023-04-10T19:53:16.871Z,100905.44
2023-04-10T19:55:44.841Z,100901.28
2023-04-10T19:58:30.040Z,100897.81
2023-04-10T20:01:06.329Z,100893.72
2023-04-10T20:03:37.556Z,100898.06
2023-04-10T20:06:07.569Z,100891.81
2023-04-10T20:08:35.857Z,100886.19
2023-04-10T20:11:06.307Z,100881.09
2023-04-10T20:13:34.754Z,100879.97
2023-04-10T20:16:05.140Z,100867.84
2023-04-10T20:18:32.367Z,100859.88
2023-04-10T20:20:59.538Z,100838.47
2023-04-10T20:23:26.605Z,100850.25
2023-04-10T20:25:53.669Z,100853.56
2023-04-10T20:28:20.845Z,100841.34
2023-04-10T20:30:47.901Z,100841.63
2023-04-10T20:33:17.862Z,100839.28
2023-04-10T20:35:45.698Z,100837.44
2023-04-10T20:38:12.800Z,100830.63
2023-04-10T20:40:42.764Z,100830.63
2023-04-10T20:43:13.953Z,100829.81
2023-04-10T20:45:41.430Z,100823.66
2023-04-10T20:48:11.387Z,100811.78
2023-04-10T20:50:45.781Z,100807.47
2023-04-10T20:53:13.272Z,100801.66
2023-04-10T20:55:40.977Z,100801.72
2023-04-10T20:58:08.221Z,100802.06
2023-04-10T21:00:35.670Z,100802.19
2023-04-10T21:03:05.979Z,100793.34
2023-04-10T21:05:33.099Z,100797.19
2023-04-10T21:08:00.300Z,100800.03
2023-04-10T21:10:27.358Z,100807.22
2023-04-10T21:12:54.424Z,100804.09
2023-04-10T21:15:22.378Z,100790.88
2023-04-10T21:17:51.912Z,100796.97
2023-04-10T21:20:19.041Z,100793.91
2023-04-10T21:22:46.174Z,100788.81
2023-04-10T21:25:13.327Z,100792.13
2023-04-10T21:27:40.406Z,100777.56
2023-04-10T21:30:08.751Z,100777.09
2023-04-10T21:32:35.881Z,100776.63
2023-04-10T21:35:03.059Z,100782.41
2023-04-10T21:37:30.931Z,100778.41
2023-04-10T21:39:58.068Z,100779.22
2023-04-10T21:42:25.146Z,100775.94
2023-04-10T21:44:54.126Z,100775.09
2023-04-10T21:47:21.303Z,100774.78
2023-04-10T21:49:48.557Z,100763.63
2023-04-10T21:52:15.603Z,100754.22
2023-04-10T21:54:42.683Z,100757.59
2023-04-10T21:57:09.727Z,100753.44
2023-04-10T21:59:37.263Z,100742.41
2023-04-10T22:02:04.409Z,100739.09
2023-04-10T22:04:33.102Z,100738.53
2023-04-10T22:07:00.269Z,100739.75
2023-04-10T22:09:27.315Z,100734.06
2023-04-10T22:11:54.465Z,100721.22
2023-04-10T22:14:21.619Z,100720.53
2023-04-10T22:16:48.736Z,100715.72
2023-04-10T22:19:15.919Z,100714.28
2023-04-10T22:21:43.106Z,100698.78
2023-04-10T22:24:11.099Z,100689.78
2023-04-10T22:26:38.283Z,100691.56
2023-04-10T22:29:05.577Z,100691.03
2023-04-10T22:31:32.784Z,100689.22
2023-04-10T22:33:59.870Z,100688.94
2023-04-10T22:36:35.407Z,100675.53
2023-04-10T22:39:03.519Z,100666.28
2023-04-10T22:41:31.784Z,100660.88
2023-04-10T22:43:58.971Z,100662.91
2023-04-10T22:46:26.162Z,100662.50
2023-04-10T22:48:55.013Z,100654.34
2023-04-10T22:51:22.328Z,100649.94
2023-04-10T22:53:49.370Z,100644.53
2023-04-10T22:56:17.153Z,100639.00
2023-04-10T22:58:44.202Z,100631.53
2023-04-10T23:01:14.268Z,100634.16
2023-04-10T23:03:41.574Z,100627.50
2023-04-10T23:06:09.282Z,100630.81
2023-04-10T23:08:36.872Z,100631.41
2023-04-10T23:11:04.056Z,100624.03
2023-04-10T23:13:31.158Z,100627.78
2023-04-10T23:15:58.318Z,100623.59
2023-04-10T23:18:25.553Z,100615.28
2023-04-10T23:20:52.642Z,100603.63
2023-04-10T23:23:20.008Z,100610.38
2023-04-10T23:25:56.648Z,100603.81
2023-04-10T23:28:23.736Z,100604.63
2023-04-10T23:30:50.868Z,100601.91
2023-04-10T23:33:18.389Z,100586.28
2023-04-10T23:35:45.569Z,100581.03
2023-04-10T23:38:12.657Z,100570.38
2023-04-10T23:40:39.721Z,100564.16
2023-04-10T23:43:06.829Z,100552.72
2023-04-10T23:45:33.881Z,100546.56
2023-04-10T23:48:00.959Z,100543.63
2023-04-10T23:50:28.007Z,100529.72
2023-04-10T23:52:55.289Z,100528.94
2023-04-10T23:55:22.855Z,100526.56
2023-04-10T23:57:49.944Z,100535.09
